logo dgac
Lunes 19 de Abril del 2021
Buscar por aerodromo o helipuerto
Ingrese nombre de aeródromo, localidad o designador OACI:
SPECI del 19-04-2021 a las 11:21 UTC
Para mayor información visite www.meteochile.cl
SPECI SCON 191121Z AUTO 25003KT 200V300 9999 -RA SCT010/// SCT013/// OVC046/// 12/11 Q1001
Nan: AUTO
Viento: dirección 250 grados, velocidad 3 nudos
Viento con dirección variable entre 200 y 300 grados
Visibilidad: 10 km o más
Débil Lluvia
Nan: SCT010///
Nan: SCT013///
Nan: OVC046///
Temperatura: 12 °C
Rocío: 11 °C
Humedad_relativa: 94%
Presión: 1001 hPa